sensor_id;sensor_type;location;lat;lon;timestamp;temperature;humidity
64685;DHT22;51109;47.414;18.954;2023-08-21T00:01:22;24.60;99.90
64685;DHT22;51109;47.414;18.954;2023-08-21T00:03:48;24.50;99.90
64685;DHT22;51109;47.414;18.954;2023-08-21T00:06:14;24.50;99.90
64685;DHT22;51109;47.414;18.954;2023-08-21T00:08:40;24.50;99.90
64685;DHT22;51109;47.414;18.954;2023-08-21T00:11:06;24.60;99.90
64685;DHT22;51109;47.414;18.954;2023-08-21T00:13:32;24.60;99.90
64685;DHT22;51109;47.414;18.954;2023-08-21T00:15:58;24.60;99.90
64685;DHT22;51109;47.414;18.954;2023-08-21T00:20:50;24.60;99.90
64685;DHT22;51109;47.414;18.954;2023-08-21T00:23:15;24.50;99.90
64685;DHT22;51109;47.414;18.954;2023-08-21T00:25:45;24.60;99.90
64685;DHT22;51109;47.414;18.954;2023-08-21T00:28:11;24.60;99.90
64685;DHT22;51109;47.414;18.954;2023-08-21T00:30:38;24.50;99.90
64685;DHT22;51109;47.414;18.954;2023-08-21T00:33:04;24.50;99.90
64685;DHT22;51109;47.414;18.954;2023-08-21T00:35:29;24.30;99.90
64685;DHT22;51109;47.414;18.954;2023-08-21T00:37:55;24.10;99.90
64685;DHT22;51109;47.414;18.954;2023-08-21T00:40:21;23.90;99.90
64685;DHT22;51109;47.414;18.954;2023-08-21T00:42:47;23.90;99.90
64685;DHT22;51109;47.414;18.954;2023-08-21T00:45:13;23.90;99.90
64685;DHT22;51109;47.414;18.954;2023-08-21T00:47:39;23.80;99.90
64685;DHT22;51109;47.414;18.954;2023-08-21T00:50:06;23.70;99.90
64685;DHT22;51109;47.414;18.954;2023-08-21T00:52:38;23.30;99.90
64685;DHT22;51109;47.414;18.954;2023-08-21T00:55:06;23.30;99.90
64685;DHT22;51109;47.414;18.954;2023-08-21T00:57:33;23.30;99.90
64685;DHT22;51109;47.414;18.954;2023-08-21T01:00:02;23.20;99.90
64685;DHT22;51109;47.414;18.954;2023-08-21T01:02:30;23.10;99.90
64685;DHT22;51109;47.414;18.954;2023-08-21T01:04:58;23.00;99.90
64685;DHT22;51109;47.414;18.954;2023-08-21T01:07:24;23.10;99.90
64685;DHT22;51109;47.414;18.954;2023-08-21T01:09:58;23.00;99.90
64685;DHT22;51109;47.414;18.954;2023-08-21T01:12:37;23.00;99.90
64685;DHT22;51109;47.414;18.954;2023-08-21T01:15:07;23.10;99.90
64685;DHT22;51109;47.414;18.954;2023-08-21T01:17:37;23.00;99.90
64685;DHT22;51109;47.414;18.954;2023-08-21T01:20:05;23.10;99.90
64685;DHT22;51109;47.414;18.954;2023-08-21T01:22:37;23.10;99.90
64685;DHT22;51109;47.414;18.954;2023-08-21T01:25:07;23.10;99.90
64685;DHT22;51109;47.414;18.954;2023-08-21T01:27:34;23.10;99.90
64685;DHT22;51109;47.414;18.954;2023-08-21T01:30:01;23.20;99.90
64685;DHT22;51109;47.414;18.954;2023-08-21T01:32:59;23.20;99.90
64685;DHT22;51109;47.414;18.954;2023-08-21T01:35:29;23.20;99.90
64685;DHT22;51109;47.414;18.954;2023-08-21T01:37:56;23.20;99.90
64685;DHT22;51109;47.414;18.954;2023-08-21T01:40:23;23.20;99.90
64685;DHT22;51109;47.414;18.954;2023-08-21T01:42:49;23.10;99.90
64685;DHT22;51109;47.414;18.954;2023-08-21T01:45:15;23.00;99.90
64685;DHT22;51109;47.414;18.954;2023-08-21T01:47:41;22.90;99.90
64685;DHT22;51109;47.414;18.954;2023-08-21T01:50:08;22.70;99.90
64685;DHT22;51109;47.414;18.954;2023-08-21T01:52:34;22.70;99.90
64685;DHT22;51109;47.414;18.954;2023-08-21T01:55:00;22.80;99.90
64685;DHT22;51109;47.414;18.954;2023-08-21T01:57:25;22.80;99.90
64685;DHT22;51109;47.414;18.954;2023-08-21T01:59:51;22.80;99.90
64685;DHT22;51109;47.414;18.954;2023-08-21T02:02:17;22.90;99.90
64685;DHT22;51109;47.414;18.954;2023-08-21T02:04:43;23.00;99.90
64685;DHT22;51109;47.414;18.954;2023-08-21T02:07:09;23.00;99.90
64685;DHT22;51109;47.414;18.954;2023-08-21T02:09:35;23.00;99.90
64685;DHT22;51109;47.414;18.954;2023-08-21T02:12:01;23.00;99.90
64685;DHT22;51109;47.414;18.954;2023-08-21T02:14:27;23.10;99.90
64685;DHT22;51109;47.414;18.954;2023-08-21T02:16:53;23.10;99.90
64685;DHT22;51109;47.414;18.954;2023-08-21T02:19:19;23.10;99.90
64685;DHT22;51109;47.414;18.954;2023-08-21T02:21:45;23.10;99.90
64685;DHT22;51109;47.414;18.954;2023-08-21T02:24:11;22.90;99.90
64685;DHT22;51109;47.414;18.954;2023-08-21T02:26:37;22.70;99.90
64685;DHT22;51109;47.414;18.954;2023-08-21T02:29:03;22.50;99.90
64685;DHT22;51109;47.414;18.954;2023-08-21T02:31:29;22.40;99.90
64685;DHT22;51109;47.414;18.954;2023-08-21T02:33:55;22.40;99.90
64685;DHT22;51109;47.414;18.954;2023-08-21T02:36:21;22.40;99.90
64685;DHT22;51109;47.414;18.954;2023-08-21T02:38:47;22.40;99.90
64685;DHT22;51109;47.414;18.954;2023-08-21T02:43:39;22.40;99.90
64685;DHT22;51109;47.414;18.954;2023-08-21T02:46:05;22.30;99.90
64685;DHT22;51109;47.414;18.954;2023-08-21T02:48:30;22.40;99.90
64685;DHT22;51109;47.414;18.954;2023-08-21T02:50:56;22.40;99.90
64685;DHT22;51109;47.414;18.954;2023-08-21T02:53:22;22.40;99.90
64685;DHT22;51109;47.414;18.954;2023-08-21T02:55:49;22.40;99.90
64685;DHT22;51109;47.414;18.954;2023-08-21T02:58:15;22.40;99.90
64685;DHT22;51109;47.414;18.954;2023-08-21T03:00:40;22.40;99.90
64685;DHT22;51109;47.414;18.954;2023-08-21T03:03:06;22.40;99.90
64685;DHT22;51109;47.414;18.954;2023-08-21T03:05:33;22.30;99.90
64685;DHT22;51109;47.414;18.954;2023-08-21T03:07:59;22.30;99.90
64685;DHT22;51109;47.414;18.954;2023-08-21T03:12:52;22.20;99.90
64685;DHT22;51109;47.414;18.954;2023-08-21T03:15:18;22.20;99.90
64685;DHT22;51109;47.414;18.954;2023-08-21T03:17:44;22.20;99.90
64685;DHT22;51109;47.414;18.954;2023-08-21T03:20:10;22.30;99.90
64685;DHT22;51109;47.414;18.954;2023-08-21T03:22:36;22.40;99.90
64685;DHT22;51109;47.414;18.954;2023-08-21T03:25:02;22.30;99.90
64685;DHT22;51109;47.414;18.954;2023-08-21T03:27:28;22.40;99.90
64685;DHT22;51109;47.414;18.954;2023-08-21T03:29:54;22.40;99.90
64685;DHT22;51109;47.414;18.954;2023-08-21T03:32:20;22.50;99.90
64685;DHT22;51109;47.414;18.954;2023-08-21T03:34:46;22.50;99.90
64685;DHT22;51109;47.414;18.954;2023-08-21T03:37:12;22.60;99.90
64685;DHT22;51109;47.414;18.954;2023-08-21T03:39:38;22.60;99.90
64685;DHT22;51109;47.414;18.954;2023-08-21T03:42:04;22.70;99.90
64685;DHT22;51109;47.414;18.954;2023-08-21T03:44:30;22.70;99.90
64685;DHT22;51109;47.414;18.954;2023-08-21T03:46:56;22.70;99.90
64685;DHT22;51109;47.414;18.954;2023-08-21T03:49:22;22.70;99.90
64685;DHT22;51109;47.414;18.954;2023-08-21T03:51:48;22.70;99.90
64685;DHT22;51109;47.414;18.954;2023-08-21T03:54:13;22.70;99.90
64685;DHT22;51109;47.414;18.954;2023-08-21T03:56:39;22.70;99.90
64685;DHT22;51109;47.414;18.954;2023-08-21T03:59:05;22.70;99.90
64685;DHT22;51109;47.414;18.954;2023-08-21T04:01:31;22.70;99.90
64685;DHT22;51109;47.414;18.954;2023-08-21T04:03:57;22.70;99.90
64685;DHT22;51109;47.414;18.954;2023-08-21T04:06:23;22.70;99.90
64685;DHT22;51109;47.414;18.954;2023-08-21T04:08:48;22.70;99.90
64685;DHT22;51109;47.414;18.954;2023-08-21T04:11:15;22.60;99.90
64685;DHT22;51109;47.414;18.954;2023-08-21T04:13:41;22.70;99.90
64685;DHT22;51109;47.414;18.954;2023-08-21T04:16:07;22.70;99.90
64685;DHT22;51109;47.414;18.954;2023-08-21T04:18:34;22.70;99.90
64685;DHT22;51109;47.414;18.954;2023-08-21T04:21:02;22.80;99.90
64685;DHT22;51109;47.414;18.954;2023-08-21T04:23:28;22.80;99.90
64685;DHT22;51109;47.414;18.954;2023-08-21T04:26:00;22.80;99.90
64685;DHT22;51109;47.414;18.954;2023-08-21T04:28:27;22.90;99.90
64685;DHT22;51109;47.414;18.954;2023-08-21T04:30:52;23.00;99.90
64685;DHT22;51109;47.414;18.954;2023-08-21T04:33:18;23.00;99.90
64685;DHT22;51109;47.414;18.954;2023-08-21T04:35:44;23.00;99.90
64685;DHT22;51109;47.414;18.954;2023-08-21T04:38:10;23.10;99.90
64685;DHT22;51109;47.414;18.954;2023-08-21T04:40:36;23.20;99.90
64685;DHT22;51109;47.414;18.954;2023-08-21T04:43:04;23.40;99.90
64685;DHT22;51109;47.414;18.954;2023-08-21T04:45:30;23.40;99.90
64685;DHT22;51109;47.414;18.954;2023-08-21T04:47:56;23.50;99.90
64685;DHT22;51109;47.414;18.954;2023-08-21T04:50:22;23.50;99.90
64685;DHT22;51109;47.414;18.954;2023-08-21T04:52:48;23.60;99.90
64685;DHT22;51109;47.414;18.954;2023-08-21T04:55:14;23.60;99.90
64685;DHT22;51109;47.414;18.954;2023-08-21T04:57:40;23.70;99.90
64685;DHT22;51109;47.414;18.954;2023-08-21T05:00:07;23.80;99.90
64685;DHT22;51109;47.414;18.954;2023-08-21T05:02:33;23.80;99.90
64685;DHT22;51109;47.414;18.954;2023-08-21T05:04:59;23.90;99.90
64685;DHT22;51109;47.414;18.954;2023-08-21T05:07:25;24.00;99.90
64685;DHT22;51109;47.414;18.954;2023-08-21T05:09:52;24.20;99.90
64685;DHT22;51109;47.414;18.954;2023-08-21T05:12:18;24.30;99.90
64685;DHT22;51109;47.414;18.954;2023-08-21T05:14:44;24.50;99.90
64685;DHT22;51109;47.414;18.954;2023-08-21T05:17:10;24.60;99.90
64685;DHT22;51109;47.414;18.954;2023-08-21T05:19:36;24.70;99.90
64685;DHT22;51109;47.414;18.954;2023-08-21T05:22:01;24.80;99.90
64685;DHT22;51109;47.414;18.954;2023-08-21T05:24:27;24.90;99.90
64685;DHT22;51109;47.414;18.954;2023-08-21T05:26:55;25.10;99.90
64685;DHT22;51109;47.414;18.954;2023-08-21T05:29:21;25.30;99.90
64685;DHT22;51109;47.414;18.954;2023-08-21T05:31:47;25.30;99.90
64685;DHT22;51109;47.414;18.954;2023-08-21T05:34:12;25.40;99.90
64685;DHT22;51109;47.414;18.954;2023-08-21T05:36:38;25.50;99.90
64685;DHT22;51109;47.414;18.954;2023-08-21T05:39:05;25.70;99.90
64685;DHT22;51109;47.414;18.954;2023-08-21T05:41:32;25.80;99.90
64685;DHT22;51109;47.414;18.954;2023-08-21T05:43:58;25.90;99.90
64685;DHT22;51109;47.414;18.954;2023-08-21T05:46:24;26.10;99.90
64685;DHT22;51109;47.414;18.954;2023-08-21T05:48:50;26.10;99.90
64685;DHT22;51109;47.414;18.954;2023-08-21T05:51:15;26.20;99.90
64685;DHT22;51109;47.414;18.954;2023-08-21T05:53:41;26.40;99.90
64685;DHT22;51109;47.414;18.954;2023-08-21T05:56:07;26.50;99.90
64685;DHT22;51109;47.414;18.954;2023-08-21T05:58:33;26.60;99.90
64685;DHT22;51109;47.414;18.954;2023-08-21T06:03:25;26.80;99.90
64685;DHT22;51109;47.414;18.954;2023-08-21T06:05:51;26.80;99.90
64685;DHT22;51109;47.414;18.954;2023-08-21T06:08:17;27.00;99.90
64685;DHT22;51109;47.414;18.954;2023-08-21T06:10:43;27.10;99.90
64685;DHT22;51109;47.414;18.954;2023-08-21T06:13:12;27.30;99.90
64685;DHT22;51109;47.414;18.954;2023-08-21T06:15:47;27.50;99.90
64685;DHT22;51109;47.414;18.954;2023-08-21T06:18:14;27.60;99.90
64685;DHT22;51109;47.414;18.954;2023-08-21T06:20:44;27.70;99.90
64685;DHT22;51109;47.414;18.954;2023-08-21T06:25:37;28.00;99.90
64685;DHT22;51109;47.414;18.954;2023-08-21T06:28:04;28.10;99.90
64685;DHT22;51109;47.414;18.954;2023-08-21T06:30:30;28.30;99.90
64685;DHT22;51109;47.414;18.954;2023-08-21T06:32:56;28.30;99.90
64685;DHT22;51109;47.414;18.954;2023-08-21T06:35:22;28.30;99.90
64685;DHT22;51109;47.414;18.954;2023-08-21T06:37:48;28.40;99.90
64685;DHT22;51109;47.414;18.954;2023-08-21T06:40:14;28.60;99.90
64685;DHT22;51109;47.414;18.954;2023-08-21T06:42:40;28.60;99.90
64685;DHT22;51109;47.414;18.954;2023-08-21T06:45:06;28.60;99.90
64685;DHT22;51109;47.414;18.954;2023-08-21T06:47:32;28.70;99.90
64685;DHT22;51109;47.414;18.954;2023-08-21T06:49:58;28.70;99.90
64685;DHT22;51109;47.414;18.954;2023-08-21T06:52:26;28.70;99.90
64685;DHT22;51109;47.414;18.954;2023-08-21T06:54:52;28.60;99.90
64685;DHT22;51109;47.414;18.954;2023-08-21T06:57:18;28.70;99.90
64685;DHT22;51109;47.414;18.954;2023-08-21T06:59:44;28.70;99.90
64685;DHT22;51109;47.414;18.954;2023-08-21T07:02:10;28.80;99.90
64685;DHT22;51109;47.414;18.954;2023-08-21T07:04:36;29.00;99.90
64685;DHT22;51109;47.414;18.954;2023-08-21T07:07:02;29.00;99.90
64685;DHT22;51109;47.414;18.954;2023-08-21T07:09:28;29.10;99.90
64685;DHT22;51109;47.414;18.954;2023-08-21T07:11:54;29.20;99.90
64685;DHT22;51109;47.414;18.954;2023-08-21T07:14:19;29.30;99.90
64685;DHT22;51109;47.414;18.954;2023-08-21T07:16:45;29.50;99.90
64685;DHT22;51109;47.414;18.954;2023-08-21T07:19:11;29.60;99.90
64685;DHT22;51109;47.414;18.954;2023-08-21T07:24:04;29.80;99.90
64685;DHT22;51109;47.414;18.954;2023-08-21T07:26:30;30.00;99.90
64685;DHT22;51109;47.414;18.954;2023-08-21T07:28:56;30.10;99.90
64685;DHT22;51109;47.414;18.954;2023-08-21T07:31:22;30.00;99.90
64685;DHT22;51109;47.414;18.954;2023-08-21T07:33:48;30.10;99.90
64685;DHT22;51109;47.414;18.954;2023-08-21T07:36:14;30.20;99.90
64685;DHT22;51109;47.414;18.954;2023-08-21T07:38:43;30.20;99.90
64685;DHT22;51109;47.414;18.954;2023-08-21T07:41:10;30.30;99.90
64685;DHT22;51109;47.414;18.954;2023-08-21T07:43:40;30.40;99.90
64685;DHT22;51109;47.414;18.954;2023-08-21T07:46:08;30.40;99.90
64685;DHT22;51109;47.414;18.954;2023-08-21T07:48:35;30.50;99.90
64685;DHT22;51109;47.414;18.954;2023-08-21T07:53:28;30.50;99.90
64685;DHT22;51109;47.414;18.954;2023-08-21T07:55:54;30.50;99.90
64685;DHT22;51109;47.414;18.954;2023-08-21T07:58:20;30.50;99.90
64685;DHT22;51109;47.414;18.954;2023-08-21T08:00:46;30.60;99.90
64685;DHT22;51109;47.414;18.954;2023-08-21T08:03:11;30.70;99.90
64685;DHT22;51109;47.414;18.954;2023-08-21T08:05:40;30.70;99.90
64685;DHT22;51109;47.414;18.954;2023-08-21T08:08:07;30.60;99.90
64685;DHT22;51109;47.414;18.954;2023-08-21T08:10:33;30.60;99.90
64685;DHT22;51109;47.414;18.954;2023-08-21T08:12:59;30.80;99.90
64685;DHT22;51109;47.414;18.954;2023-08-21T08:15:25;30.90;99.90
64685;DHT22;51109;47.414;18.954;2023-08-21T08:17:53;31.00;99.90
64685;DHT22;51109;47.414;18.954;2023-08-21T08:20:20;30.90;99.90
64685;DHT22;51109;47.414;18.954;2023-08-21T08:22:46;30.90;99.90
64685;DHT22;51109;47.414;18.954;2023-08-21T08:25:12;31.00;99.90
64685;DHT22;51109;47.414;18.954;2023-08-21T08:27:39;31.10;99.90
64685;DHT22;51109;47.414;18.954;2023-08-21T08:30:06;31.10;99.90
64685;DHT22;51109;47.414;18.954;2023-08-21T08:32:32;31.10;99.90
64685;DHT22;51109;47.414;18.954;2023-08-21T08:34:58;31.10;99.90
64685;DHT22;51109;47.414;18.954;2023-08-21T08:37:24;31.20;99.90
64685;DHT22;51109;47.414;18.954;2023-08-21T08:39:50;31.20;99.90
64685;DHT22;51109;47.414;18.954;2023-08-21T08:42:16;31.20;99.90
64685;DHT22;51109;47.414;18.954;2023-08-21T08:44:43;31.20;99.90
64685;DHT22;51109;47.414;18.954;2023-08-21T08:47:10;31.20;99.90
64685;DHT22;51109;47.414;18.954;2023-08-21T08:49:40;31.30;99.90
64685;DHT22;51109;47.414;18.954;2023-08-21T08:52:06;31.40;99.90
64685;DHT22;51109;47.414;18.954;2023-08-21T08:54:32;31.60;99.90
64685;DHT22;51109;47.414;18.954;2023-08-21T08:57:01;31.70;99.90
64685;DHT22;51109;47.414;18.954;2023-08-21T08:59:30;31.70;99.90
64685;DHT22;51109;47.414;18.954;2023-08-21T09:01:57;31.60;99.90
64685;DHT22;51109;47.414;18.954;2023-08-21T09:04:23;31.70;99.90
64685;DHT22;51109;47.414;18.954;2023-08-21T09:06:48;31.50;99.90
64685;DHT22;51109;47.414;18.954;2023-08-21T09:09:14;31.40;99.90
64685;DHT22;51109;47.414;18.954;2023-08-21T09:11:45;31.60;99.90
64685;DHT22;51109;47.414;18.954;2023-08-21T09:14:11;31.70;99.90
64685;DHT22;51109;47.414;18.954;2023-08-21T09:16:37;31.80;99.90
64685;DHT22;51109;47.414;18.954;2023-08-21T09:19:03;31.80;99.90
64685;DHT22;51109;47.414;18.954;2023-08-21T09:21:29;31.60;99.90
64685;DHT22;51109;47.414;18.954;2023-08-21T09:24:00;31.60;99.90
64685;DHT22;51109;47.414;18.954;2023-08-21T09:26:26;31.60;99.90
64685;DHT22;51109;47.414;18.954;2023-08-21T09:28:53;31.80;99.90
64685;DHT22;51109;47.414;18.954;2023-08-21T09:31:23;31.90;99.90
64685;DHT22;51109;47.414;18.954;2023-08-21T09:33:57;31.80;99.90
64685;DHT22;51109;47.414;18.954;2023-08-21T09:36:23;31.90;99.90
64685;DHT22;51109;47.414;18.954;2023-08-21T09:38:51;31.80;99.90
64685;DHT22;51109;47.414;18.954;2023-08-21T09:41:21;32.00;99.90
64685;DHT22;51109;47.414;18.954;2023-08-21T09:43:47;31.80;99.90
64685;DHT22;51109;47.414;18.954;2023-08-21T09:46:17;31.60;99.90
64685;DHT22;51109;47.414;18.954;2023-08-21T09:48:48;31.70;99.90
64685;DHT22;51109;47.414;18.954;2023-08-21T09:51:15;31.70;99.90
64685;DHT22;51109;47.414;18.954;2023-08-21T09:53:41;31.70;99.90
64685;DHT22;51109;47.414;18.954;2023-08-21T09:56:07;31.70;99.90
64685;DHT22;51109;47.414;18.954;2023-08-21T09:58:37;31.90;99.90
64685;DHT22;51109;47.414;18.954;2023-08-21T10:01:07;31.90;99.90
64685;DHT22;51109;47.414;18.954;2023-08-21T10:03:41;32.00;99.90
64685;DHT22;51109;47.414;18.954;2023-08-21T10:06:11;32.00;99.90
64685;DHT22;51109;47.414;18.954;2023-08-21T10:08:39;32.00;99.90
64685;DHT22;51109;47.414;18.954;2023-08-21T10:11:08;32.20;99.90
64685;DHT22;51109;47.414;18.954;2023-08-21T10:13:38;32.20;99.90
64685;DHT22;51109;47.414;18.954;2023-08-21T10:16:05;32.20;99.90
64685;DHT22;51109;47.414;18.954;2023-08-21T10:18:33;32.10;99.90
64685;DHT22;51109;47.414;18.954;2023-08-21T10:21:17;31.70;99.90
64685;DHT22;51109;47.414;18.954;2023-08-21T10:23:50;31.70;99.90
64685;DHT22;51109;47.414;18.954;2023-08-21T10:26:19;31.70;99.90
64685;DHT22;51109;47.414;18.954;2023-08-21T10:28:52;31.90;99.90
64685;DHT22;51109;47.414;18.954;2023-08-21T10:33:57;32.00;99.90
64685;DHT22;51109;47.414;18.954;2023-08-21T10:39:26;32.50;99.90
64685;DHT22;51109;47.414;18.954;2023-08-21T10:49:58;32.60;99.90
64685;DHT22;51109;47.414;18.954;2023-08-21T10:52:28;32.50;99.90
64685;DHT22;51109;47.414;18.954;2023-08-21T10:54:57;32.60;99.90
64685;DHT22;51109;47.414;18.954;2023-08-21T10:57:25;32.70;99.90
64685;DHT22;51109;47.414;18.954;2023-08-21T11:02:21;32.80;99.90
64685;DHT22;51109;47.414;18.954;2023-08-21T11:04:48;32.70;99.90
64685;DHT22;51109;47.414;18.954;2023-08-21T11:07:14;32.70;99.90
64685;DHT22;51109;47.414;18.954;2023-08-21T11:09:40;32.80;99.90
64685;DHT22;51109;47.414;18.954;2023-08-21T11:12:10;32.80;99.90
64685;DHT22;51109;47.414;18.954;2023-08-21T11:14:37;32.80;99.90
64685;DHT22;51109;47.414;18.954;2023-08-21T11:17:03;32.90;99.90
64685;DHT22;51109;47.414;18.954;2023-08-21T11:19:33;33.00;99.90
64685;DHT22;51109;47.414;18.954;2023-08-21T11:22:00;32.90;99.90
64685;DHT22;51109;47.414;18.954;2023-08-21T11:26:58;32.80;99.90
64685;DHT22;51109;47.414;18.954;2023-08-21T11:29:24;33.00;99.90
64685;DHT22;51109;47.414;18.954;2023-08-21T11:31:50;32.90;99.90
64685;DHT22;51109;47.414;18.954;2023-08-21T11:34:21;32.70;99.90
64685;DHT22;51109;47.414;18.954;2023-08-21T11:39:13;32.80;99.90
64685;DHT22;51109;47.414;18.954;2023-08-21T11:41:58;32.70;99.90
64685;DHT22;51109;47.414;18.954;2023-08-21T11:44:24;32.70;99.90
64685;DHT22;51109;47.414;18.954;2023-08-21T11:46:51;32.90;99.90
64685;DHT22;51109;47.414;18.954;2023-08-21T11:49:18;33.00;99.90
64685;DHT22;51109;47.414;18.954;2023-08-21T11:51:47;33.10;99.90
64685;DHT22;51109;47.414;18.954;2023-08-21T11:54:13;33.10;99.90
64685;DHT22;51109;47.414;18.954;2023-08-21T11:56:39;33.20;99.90
64685;DHT22;51109;47.414;18.954;2023-08-21T11:59:08;33.20;99.90
64685;DHT22;51109;47.414;18.954;2023-08-21T12:01:34;33.20;99.90
64685;DHT22;51109;47.414;18.954;2023-08-21T12:04:00;33.00;99.90
64685;DHT22;51109;47.414;18.954;2023-08-21T12:06:26;32.90;99.90
64685;DHT22;51109;47.414;18.954;2023-08-21T12:08:54;32.80;99.90
64685;DHT22;51109;47.414;18.954;2023-08-21T12:11:20;32.90;99.90
64685;DHT22;51109;47.414;18.954;2023-08-21T12:13:46;33.10;99.90
64685;DHT22;51109;47.414;18.954;2023-08-21T12:16:12;32.90;99.90
64685;DHT22;51109;47.414;18.954;2023-08-21T12:21:04;33.10;99.90
64685;DHT22;51109;47.414;18.954;2023-08-21T12:23:32;33.30;99.90
64685;DHT22;51109;47.414;18.954;2023-08-21T12:25:59;33.20;99.90
64685;DHT22;51109;47.414;18.954;2023-08-21T12:28:25;33.10;99.90
64685;DHT22;51109;47.414;18.954;2023-08-21T12:30:51;33.10;99.90
64685;DHT22;51109;47.414;18.954;2023-08-21T12:33:17;33.10;99.90
64685;DHT22;51109;47.414;18.954;2023-08-21T12:35:43;33.40;99.90
64685;DHT22;51109;47.414;18.954;2023-08-21T12:38:11;33.50;99.90
64685;DHT22;51109;47.414;18.954;2023-08-21T12:40:39;33.50;99.90
64685;DHT22;51109;47.414;18.954;2023-08-21T12:43:05;33.50;99.90
64685;DHT22;51109;47.414;18.954;2023-08-21T12:45:30;33.50;99.90
64685;DHT22;51109;47.414;18.954;2023-08-21T12:47:56;33.80;99.90
64685;DHT22;51109;47.414;18.954;2023-08-21T12:50:22;33.80;99.90
64685;DHT22;51109;47.414;18.954;2023-08-21T12:52:48;33.70;99.90
64685;DHT22;51109;47.414;18.954;2023-08-21T12:55:14;33.50;99.90
64685;DHT22;51109;47.414;18.954;2023-08-21T12:57:40;33.50;99.90
64685;DHT22;51109;47.414;18.954;2023-08-21T13:00:06;34.00;99.90
64685;DHT22;51109;47.414;18.954;2023-08-21T13:02:32;34.00;99.90
64685;DHT22;51109;47.414;18.954;2023-08-21T13:04:58;34.10;99.90
64685;DHT22;51109;47.414;18.954;2023-08-21T13:07:24;34.20;99.90
64685;DHT22;51109;47.414;18.954;2023-08-21T13:09:50;34.30;99.90
64685;DHT22;51109;47.414;18.954;2023-08-21T13:12:15;34.30;99.90
64685;DHT22;51109;47.414;18.954;2023-08-21T13:14:42;34.40;99.90
64685;DHT22;51109;47.414;18.954;2023-08-21T13:17:08;34.30;99.90
64685;DHT22;51109;47.414;18.954;2023-08-21T13:19:33;34.30;99.90
64685;DHT22;51109;47.414;18.954;2023-08-21T13:21:59;34.70;99.90
64685;DHT22;51109;47.414;18.954;2023-08-21T13:24:25;34.50;99.90
64685;DHT22;51109;47.414;18.954;2023-08-21T13:26:53;34.30;99.90
64685;DHT22;51109;47.414;18.954;2023-08-21T13:29:19;34.30;99.90
64685;DHT22;51109;47.414;18.954;2023-08-21T13:31:45;34.40;99.90
64685;DHT22;51109;47.414;18.954;2023-08-21T13:34:11;34.50;99.90
64685;DHT22;51109;47.414;18.954;2023-08-21T13:36:38;34.70;99.90
64685;DHT22;51109;47.414;18.954;2023-08-21T13:39:04;34.70;99.90
64685;DHT22;51109;47.414;18.954;2023-08-21T13:41:31;34.70;99.90
64685;DHT22;51109;47.414;18.954;2023-08-21T13:43:57;34.50;99.90
64685;DHT22;51109;47.414;18.954;2023-08-21T13:46:24;34.30;99.90
64685;DHT22;51109;47.414;18.954;2023-08-21T13:48:50;33.90;99.90
64685;DHT22;51109;47.414;18.954;2023-08-21T13:51:15;34.30;99.90
64685;DHT22;51109;47.414;18.954;2023-08-21T13:53:41;34.50;99.90
64685;DHT22;51109;47.414;18.954;2023-08-21T13:56:08;34.70;99.90
64685;DHT22;51109;47.414;18.954;2023-08-21T13:58:34;34.60;99.90
64685;DHT22;51109;47.414;18.954;2023-08-21T14:00:59;34.90;99.90
64685;DHT22;51109;47.414;18.954;2023-08-21T14:03:26;34.90;99.90
64685;DHT22;51109;47.414;18.954;2023-08-21T14:05:52;34.80;99.90
64685;DHT22;51109;47.414;18.954;2023-08-21T14:08:18;35.00;99.90
64685;DHT22;51109;47.414;18.954;2023-08-21T14:10:44;34.90;99.90
64685;DHT22;51109;47.414;18.954;2023-08-21T14:13:10;34.90;99.90
64685;DHT22;51109;47.414;18.954;2023-08-21T14:15:36;34.80;99.90
64685;DHT22;51109;47.414;18.954;2023-08-21T14:18:01;34.50;99.90
64685;DHT22;51109;47.414;18.954;2023-08-21T14:20:28;34.60;99.90
64685;DHT22;51109;47.414;18.954;2023-08-21T14:25:20;34.90;99.90
64685;DHT22;51109;47.414;18.954;2023-08-21T14:27:47;34.70;99.90
64685;DHT22;51109;47.414;18.954;2023-08-21T14:30:14;34.80;99.90
64685;DHT22;51109;47.414;18.954;2023-08-21T14:32:40;34.60;99.90
64685;DHT22;51109;47.414;18.954;2023-08-21T14:35:06;34.80;99.90
64685;DHT22;51109;47.414;18.954;2023-08-21T14:37:36;34.60;99.90
64685;DHT22;51109;47.414;18.954;2023-08-21T14:40:02;34.90;99.90
64685;DHT22;51109;47.414;18.954;2023-08-21T14:42:34;34.90;99.90
64685;DHT22;51109;47.414;18.954;2023-08-21T14:45:00;34.60;99.90
64685;DHT22;51109;47.414;18.954;2023-08-21T14:47:25;34.40;99.90
64685;DHT22;51109;47.414;18.954;2023-08-21T14:49:51;34.20;99.90
64685;DHT22;51109;47.414;18.954;2023-08-21T14:52:17;34.30;99.90
64685;DHT22;51109;47.414;18.954;2023-08-21T14:54:43;34.30;99.90
64685;DHT22;51109;47.414;18.954;2023-08-21T14:57:09;34.60;99.90
64685;DHT22;51109;47.414;18.954;2023-08-21T14:59:35;34.70;99.90
64685;DHT22;51109;47.414;18.954;2023-08-21T15:02:00;34.60;99.90
64685;DHT22;51109;47.414;18.954;2023-08-21T15:04:26;34.60;99.90
64685;DHT22;51109;47.414;18.954;2023-08-21T15:06:52;34.50;99.90
64685;DHT22;51109;47.414;18.954;2023-08-21T15:09:18;34.00;99.90
64685;DHT22;51109;47.414;18.954;2023-08-21T15:14:11;34.20;99.90
64685;DHT22;51109;47.414;18.954;2023-08-21T15:16:37;34.10;99.90
64685;DHT22;51109;47.414;18.954;2023-08-21T15:19:04;34.30;99.90
64685;DHT22;51109;47.414;18.954;2023-08-21T15:21:29;34.40;99.90
64685;DHT22;51109;47.414;18.954;2023-08-21T15:23:55;34.40;99.90
64685;DHT22;51109;47.414;18.954;2023-08-21T15:26:24;34.30;99.90
64685;DHT22;51109;47.414;18.954;2023-08-21T15:28:50;34.20;99.90
64685;DHT22;51109;47.414;18.954;2023-08-21T15:31:16;34.10;99.90
64685;DHT22;51109;47.414;18.954;2023-08-21T15:33:42;34.10;99.90
64685;DHT22;51109;47.414;18.954;2023-08-21T15:36:07;34.10;99.90
64685;DHT22;51109;47.414;18.954;2023-08-21T15:38:33;33.90;99.90
64685;DHT22;51109;47.414;18.954;2023-08-21T15:40:59;33.80;99.90
64685;DHT22;51109;47.414;18.954;2023-08-21T15:43:25;33.70;99.90
64685;DHT22;51109;47.414;18.954;2023-08-21T15:45:51;33.60;99.90
64685;DHT22;51109;47.414;18.954;2023-08-21T15:48:18;33.50;99.90
64685;DHT22;51109;47.414;18.954;2023-08-21T15:50:44;33.20;99.90
64685;DHT22;51109;47.414;18.954;2023-08-21T15:53:10;33.20;99.90
64685;DHT22;51109;47.414;18.954;2023-08-21T15:55:36;33.10;99.90
64685;DHT22;51109;47.414;18.954;2023-08-21T15:58:02;32.80;99.90